createdAt,value
2018-01-15T00:00:07.031Z,0
2018-01-15T00:01:16.476Z,0
2018-01-15T00:02:26.504Z,0
2018-01-15T00:03:36.522Z,0
2018-01-15T00:04:46.496Z,0
2018-01-15T00:05:56.468Z,0
2018-01-15T00:07:06.180Z,0
2018-01-15T00:08:15.890Z,0
2018-01-15T00:09:25.333Z,0
2018-01-15T00:10:35.308Z,0
2018-01-15T00:11:45.277Z,0
2018-01-15T00:12:55.257Z,0
2018-01-15T00:14:05.286Z,0
2018-01-15T00:15:15.263Z,0
2018-01-15T00:16:24.752Z,0
2018-01-15T00:17:34.472Z,0
2018-01-15T00:18:44.445Z,0
2018-01-15T00:19:54.159Z,0
2018-01-15T00:21:04.131Z,0
2018-01-15T00:22:13.575Z,0
2018-01-15T00:23:23.555Z,0
2018-01-15T00:24:32.997Z,0
2018-01-15T00:25:42.706Z,0
2018-01-15T00:26:52.675Z,0
2018-01-15T00:28:02.657Z,0
2018-01-15T00:29:12.117Z,0
2018-01-15T00:30:21.825Z,0
2018-01-15T00:31:31.540Z,0
2018-01-15T00:32:41.509Z,0
2018-01-15T00:33:50.688Z,0
2018-01-15T00:35:00.667Z,0
2018-01-15T00:36:10.374Z,0
2018-01-15T00:37:20.344Z,0
2018-01-15T00:38:29.787Z,0
2018-01-15T00:39:39.494Z,0
2018-01-15T00:40:49.203Z,0
2018-01-15T00:41:59.172Z,0
2018-01-15T00:43:09.143Z,0
2018-01-15T00:44:18.851Z,0
2018-01-15T00:45:28.823Z,0
2018-01-15T00:46:38.793Z,0
2018-01-15T00:47:48.762Z,0
2018-01-15T00:48:58.206Z,0
2018-01-15T00:50:07.649Z,0
2018-01-15T00:51:17.622Z,0
2018-01-15T00:52:27.330Z,0
2018-01-15T00:53:37.040Z,0
2018-01-15T00:54:46.794Z,0
2018-01-15T00:55:56.499Z,0
2018-01-15T00:57:06.471Z,0
2018-01-15T00:58:16.443Z,0
2018-01-15T00:59:26.419Z,0
2018-01-15T01:00:36.126Z,0
2018-01-15T01:01:45.832Z,0
2018-01-15T01:02:55.543Z,0
2018-01-15T01:04:05.515Z,0
2018-01-15T01:05:15.499Z,0
2018-01-15T01:06:25.208Z,0
2018-01-15T01:07:35.182Z,0
2018-01-15T01:08:44.888Z,0
2018-01-15T01:09:54.594Z,0
2018-01-15T01:11:04.563Z,0
2018-01-15T01:12:14.535Z,0
2018-01-15T01:13:24.527Z,0
2018-01-15T01:14:34.232Z,0
2018-01-15T01:15:44.204Z,0
2018-01-15T01:16:54.185Z,0
2018-01-15T01:18:04.163Z,0
2018-01-15T01:19:14.139Z,0
2018-01-15T01:20:24.115Z,0
2018-01-15T01:21:33.560Z,0
2018-01-15T01:22:43.558Z,0
2018-01-15T01:23:53.000Z,0
2018-01-15T01:25:02.709Z,0
2018-01-15T01:26:12.153Z,0
2018-01-15T01:27:21.858Z,0
2018-01-15T01:28:31.568Z,0
2018-01-15T01:29:41.605Z,0
2018-01-15T01:30:51.577Z,0
2018-01-15T01:32:01.549Z,0
2018-01-15T01:33:10.999Z,0
2018-01-15T01:34:21.023Z,0
2018-01-15T01:35:30.463Z,0
2018-01-15T01:36:40.220Z,0
2018-01-15T01:37:49.664Z,0
2018-01-15T01:38:59.107Z,0
2018-01-15T01:40:09.079Z,0
2018-01-15T01:41:18.833Z,0
2018-01-15T01:42:28.282Z,0
2018-01-15T01:43:37.732Z,0
2018-01-15T01:44:47.712Z,0
2018-01-15T01:45:57.681Z,0
2018-01-15T01:47:07.653Z,0
2018-01-15T01:48:17.362Z,0
2018-01-15T01:49:27.334Z,0
2018-01-15T01:50:37.310Z,0
2018-01-15T01:51:47.014Z,0
2018-01-15T01:52:56.984Z,0
2018-01-15T01:54:06.953Z,0
2018-01-15T01:55:16.927Z,0
2018-01-15T01:56:26.910Z,0
2018-01-15T01:57:36.887Z,0
2018-01-15T01:58:46.908Z,0
2018-01-15T01:59:56.884Z,0
2018-01-15T02:01:06.857Z,0
2018-01-15T02:02:16.570Z,0
2018-01-15T02:03:26.550Z,0
2018-01-15T02:04:36.570Z,0
2018-01-15T02:05:46.539Z,0
2018-01-15T02:06:56.515Z,0
2018-01-15T02:08:06.487Z,0
2018-01-15T02:09:16.195Z,0
2018-01-15T02:10:25.747Z,0
2018-01-15T02:11:35.458Z,0
2018-01-15T02:12:45.432Z,0
2018-01-15T02:13:55.455Z,0
2018-01-15T02:15:05.434Z,0
2018-01-15T02:16:15.407Z,0
2018-01-15T02:17:25.113Z,0
2018-01-15T02:18:34.834Z,0
2018-01-15T02:19:44.821Z,0
2018-01-15T02:20:54.794Z,0
2018-01-15T02:22:04.505Z,0
2018-01-15T02:23:14.479Z,0
2018-01-15T02:24:24.186Z,0
2018-01-15T02:25:33.897Z,0
2018-01-15T02:26:43.663Z,0
2018-01-15T02:27:53.372Z,0
2018-01-15T02:29:03.347Z,0
2018-01-15T02:30:13.074Z,0
2018-01-15T02:31:23.046Z,0
2018-01-15T02:32:32.028Z,0
2018-01-15T02:33:42.006Z,0
2018-01-15T02:34:51.985Z,0
2018-01-15T02:36:01.698Z,0
2018-01-15T02:37:11.675Z,0
2018-01-15T02:38:21.389Z,0
2018-01-15T02:39:31.099Z,0
2018-01-15T02:40:41.086Z,0
2018-01-15T02:41:50.798Z,0
2018-01-15T02:43:00.785Z,0
2018-01-15T02:44:10.764Z,0
2018-01-15T02:45:20.575Z,0
2018-01-15T02:46:30.291Z,0
2018-01-15T02:47:40.263Z,0
2018-01-15T02:48:50.246Z,0
2018-01-15T02:49:59.961Z,0
2018-01-15T02:51:09.934Z,0
2018-01-15T02:52:19.922Z,0
2018-01-15T02:53:29.634Z,0
2018-01-15T02:54:39.609Z,0
2018-01-15T02:55:49.334Z,0
2018-01-15T02:56:59.309Z,0
2018-01-15T02:58:09.016Z,0
2018-01-15T02:59:18.996Z,0
2018-01-15T03:00:28.968Z,0
2018-01-15T03:01:38.940Z,0
2018-01-15T03:02:48.750Z,0
2018-01-15T03:03:58.725Z,0
2018-01-15T03:05:08.710Z,0
2018-01-15T03:06:18.421Z,0
2018-01-15T03:07:27.864Z,0
2018-01-15T03:08:37.624Z,0
2018-01-15T03:09:47.331Z,0
2018-01-15T03:10:57.303Z,0
2018-01-15T03:12:07.278Z,0
2018-01-15T03:13:17.247Z,0
2018-01-15T03:14:27.218Z,0
2018-01-15T03:15:37.202Z,0
2018-01-15T03:16:47.178Z,0
2018-01-15T03:17:57.147Z,0
2018-01-15T03:19:07.132Z,0
2018-01-15T03:20:16.840Z,0
2018-01-15T03:21:26.554Z,0
2018-01-15T03:22:36.320Z,0
2018-01-15T03:23:45.771Z,0
2018-01-15T03:24:55.739Z,0
2018-01-15T03:26:05.711Z,0
2018-01-15T03:27:15.684Z,0
2018-01-15T03:28:25.653Z,0
2018-01-15T03:29:35.363Z,0
2018-01-15T03:30:45.338Z,0
2018-01-15T03:31:55.164Z,0
2018-01-15T03:33:05.151Z,0
2018-01-15T03:34:15.121Z,0
2018-01-15T03:35:25.126Z,0
2018-01-15T03:36:34.835Z,0
2018-01-15T03:37:44.855Z,0
2018-01-15T03:38:54.832Z,0
2018-01-15T03:40:04.545Z,0
2018-01-15T03:41:14.529Z,0
2018-01-15T03:42:24.233Z,0
2018-01-15T03:43:34.233Z,0
2018-01-15T03:44:43.938Z,0
2018-01-15T03:45:53.647Z,0
2018-01-15T03:47:03.365Z,0
2018-01-15T03:48:12.807Z,0
2018-01-15T03:49:22.775Z,0
2018-01-15T03:50:32.761Z,0
2018-01-15T03:51:42.210Z,0
2018-01-15T03:52:52.195Z,0
2018-01-15T03:54:01.902Z,0
2018-01-15T03:55:11.611Z,0
2018-01-15T03:56:21.580Z,0
2018-01-15T03:57:31.290Z,0
2018-01-15T03:58:41.318Z,0
2018-01-15T03:59:51.028Z,0
2018-01-15T04:03:33.359Z,0
2018-01-15T04:04:43.329Z,0
2018-01-15T04:05:53.038Z,0
2018-01-15T04:07:03.008Z,0
2018-01-15T04:08:12.715Z,0
2018-01-15T04:09:22.687Z,0
2018-01-15T04:10:32.661Z,0
2018-01-15T04:11:42.629Z,0
2018-01-15T04:12:52.334Z,0
2018-01-15T04:14:02.050Z,0
2018-01-15T04:15:11.755Z,0
2018-01-15T04:16:21.727Z,0
2018-01-15T04:17:31.433Z,0
2018-01-15T04:18:41.402Z,0
2018-01-15T04:19:51.377Z,0
2018-01-15T04:21:01.352Z,0
2018-01-15T04:22:11.326Z,0
2018-01-15T04:23:21.294Z,0
2018-01-15T04:24:30.472Z,0
2018-01-15T04:25:40.177Z,0
2018-01-15T04:26:50.220Z,0
2018-01-15T04:27:59.928Z,0
2018-01-15T04:29:09.903Z,0
2018-01-15T04:30:19.612Z,0
2018-01-15T04:31:29.338Z,0
2018-01-15T04:32:39.048Z,0
2018-01-15T04:33:49.020Z,0
2018-01-15T04:34:59.042Z,0
2018-01-15T04:36:09.016Z,0
2018-01-15T04:37:18.986Z,0
2018-01-15T04:38:28.698Z,0
2018-01-15T04:39:38.681Z,0
2018-01-15T04:40:48.652Z,0
2018-01-15T04:41:58.622Z,0
2018-01-15T04:43:08.340Z,0
2018-01-15T04:44:18.313Z,0
2018-01-15T04:45:28.284Z,0
2018-01-15T04:46:37.993Z,0
2018-01-15T04:47:47.962Z,0
2018-01-15T04:48:57.933Z,0
2018-01-15T04:50:07.375Z,0
2018-01-15T04:51:17.346Z,0
2018-01-15T04:52:27.314Z,0
2018-01-15T04:53:37.021Z,0
2018-01-15T04:54:47.000Z,0
2018-01-15T04:55:56.714Z,0
2018-01-15T04:57:06.685Z,0
2018-01-15T04:58:16.658Z,0
2018-01-15T04:59:26.409Z,0
2018-01-15T05:00:36.120Z,0
2018-01-15T05:01:46.096Z,0
2018-01-15T05:02:55.806Z,0
2018-01-15T05:04:05.781Z,0
2018-01-15T05:05:15.801Z,0
2018-01-15T05:06:25.780Z,0
2018-01-15T05:07:35.231Z,0
2018-01-15T05:08:45.206Z,0
2018-01-15T05:09:55.176Z,0
2018-01-15T05:11:04.881Z,0
2018-01-15T05:12:14.590Z,0
2018-01-15T05:13:24.300Z,0
2018-01-15T05:14:34.272Z,0
2018-01-15T05:15:44.249Z,0
2018-01-15T05:16:54.223Z,0
2018-01-15T05:18:04.198Z,0
2018-01-15T05:19:14.216Z,0
2018-01-15T05:20:23.657Z,0
2018-01-15T05:21:33.099Z,0
2018-01-15T05:22:43.072Z,0
2018-01-15T05:23:53.047Z,0
2018-01-15T05:25:03.016Z,0
2018-01-15T05:26:12.719Z,0
2018-01-15T05:27:22.431Z,0
2018-01-15T05:28:32.141Z,0
2018-01-15T05:29:41.848Z,0
2018-01-15T05:30:51.822Z,0
2018-01-15T05:32:01.799Z,0
2018-01-15T05:33:11.782Z,0
2018-01-15T05:34:21.761Z,0
2018-01-15T05:35:31.470Z,0
2018-01-15T05:36:41.449Z,0
2018-01-15T05:37:51.427Z,0
2018-01-15T05:39:01.144Z,0
2018-01-15T05:40:10.853Z,0
2018-01-15T05:41:20.825Z,0
2018-01-15T05:42:30.580Z,0
2018-01-15T05:43:40.285Z,0
2018-01-15T05:44:50.259Z,0
2018-01-15T05:45:59.964Z,0
2018-01-15T05:47:09.938Z,0
2018-01-15T05:48:19.968Z,0
2018-01-15T05:49:29.411Z,0
2018-01-15T05:50:39.416Z,0
2018-01-15T05:51:49.390Z,0
2018-01-15T05:52:59.361Z,0
2018-01-15T05:54:09.444Z,0
2018-01-15T05:55:19.149Z,0
2018-01-15T05:56:28.859Z,0
2018-01-15T05:57:38.828Z,0
2018-01-15T05:58:48.531Z,0
2018-01-15T05:59:58.508Z,0
2018-01-15T06:01:08.211Z,0
2018-01-15T06:02:17.917Z,0
2018-01-15T06:03:27.891Z,0
2018-01-15T06:04:37.863Z,0
2018-01-15T06:05:47.834Z,0
2018-01-15T06:06:57.540Z,0
2018-01-15T06:08:07.510Z,0
2018-01-15T06:09:17.220Z,0
2018-01-15T06:10:26.925Z,0
2018-01-15T06:11:36.997Z,0
2018-01-15T06:12:46.969Z,0
2018-01-15T06:13:56.942Z,0
2018-01-15T06:15:06.917Z,0
2018-01-15T06:16:16.631Z,0
2018-01-15T06:17:26.338Z,0
2018-01-15T06:18:36.309Z,0
2018-01-15T06:19:46.017Z,0
2018-01-15T06:20:55.987Z,0
2018-01-15T06:22:05.961Z,0
2018-01-15T06:23:15.983Z,0
2018-01-15T06:24:25.425Z,0
2018-01-15T06:25:35.134Z,0
2018-01-15T06:26:44.864Z,0
2018-01-15T06:27:54.833Z,0
2018-01-15T06:29:04.939Z,0
2018-01-15T06:30:14.910Z,0
2018-01-15T06:31:24.617Z,0
2018-01-15T06:32:34.324Z,0
2018-01-15T06:33:44.084Z,0
2018-01-15T06:34:54.058Z,0
2018-01-15T06:36:03.502Z,0
2018-01-15T06:37:13.477Z,0
2018-01-15T06:38:23.449Z,0
2018-01-15T06:39:32.892Z,0
2018-01-15T06:40:42.917Z,0
2018-01-15T06:41:52.890Z,0
2018-01-15T06:43:02.599Z,0
2018-01-15T06:44:12.311Z,0
2018-01-15T06:45:22.289Z,0
2018-01-15T06:46:32.094Z,0
2018-01-15T06:47:41.806Z,0
2018-01-15T06:48:51.781Z,0
2018-01-15T06:50:01.752Z,0
2018-01-15T06:51:11.728Z,0
2018-01-15T06:52:21.756Z,0
2018-01-15T06:53:31.464Z,0
2018-01-15T06:54:41.437Z,0
2018-01-15T06:55:51.145Z,0
2018-01-15T06:57:00.854Z,0
2018-01-15T06:58:10.558Z,0
2018-01-15T06:59:20.534Z,0
2018-01-15T07:00:30.241Z,0
2018-01-15T07:01:39.948Z,0
2018-01-15T07:02:49.700Z,0
2018-01-15T07:03:59.674Z,0
2018-01-15T07:05:09.645Z,0
2018-01-15T07:06:19.616Z,0
2018-01-15T07:07:29.327Z,0
2018-01-15T07:08:39.038Z,0
2018-01-15T07:09:49.026Z,0
2018-01-15T07:10:58.998Z,0
2018-01-15T07:12:08.976Z,0
2018-01-15T07:13:18.689Z,0
2018-01-15T07:14:28.397Z,0
2018-01-15T07:15:37.575Z,0
2018-01-15T07:16:47.557Z,0
2018-01-15T07:17:57.286Z,0
2018-01-15T07:19:07.270Z,0
2018-01-15T07:20:16.978Z,0
2018-01-15T07:21:26.997Z,4
2018-01-15T07:22:36.710Z,4
2018-01-15T07:23:46.678Z,4
2018-01-15T07:24:56.391Z,4
2018-01-15T07:26:06.373Z,0
2018-01-15T07:27:15.921Z,0
2018-01-15T07:28:25.903Z,0
2018-01-15T07:29:35.622Z,4
2018-01-15T07:30:45.067Z,4
2018-01-15T07:31:55.040Z,4
2018-01-15T07:33:04.486Z,4
2018-01-15T07:34:14.456Z,4
2018-01-15T07:35:24.429Z,4
2018-01-15T07:36:34.134Z,4
2018-01-15T07:37:43.847Z,4
2018-01-15T07:38:53.866Z,4
2018-01-15T07:40:03.575Z,8
2018-01-15T07:41:13.563Z,8
2018-01-15T07:42:23.538Z,8
2018-01-15T07:43:33.519Z,8
2018-01-15T07:44:43.493Z,8
2018-01-15T07:45:53.515Z,12
2018-01-15T07:47:03.486Z,12
2018-01-15T07:48:12.927Z,16
2018-01-15T07:49:22.902Z,16
2018-01-15T07:50:31.866Z,20
2018-01-15T07:51:41.577Z,20
2018-01-15T07:52:51.618Z,24
2018-01-15T07:54:01.593Z,24
2018-01-15T07:55:11.564Z,32
2018-01-15T07:56:21.268Z,32
2018-01-15T07:57:30.973Z,36
2018-01-15T07:58:40.682Z,40
2018-01-15T07:59:50.652Z,40
2018-01-15T08:00:59.834Z,44
2018-01-15T08:02:09.388Z,44
2018-01-15T08:03:19.424Z,44
2018-01-15T08:04:29.133Z,48
2018-01-15T08:05:38.579Z,52
2018-01-15T08:06:48.293Z,56
2018-01-15T08:07:58.269Z,56
2018-01-15T08:09:07.448Z,60
2018-01-15T08:10:17.158Z,64
2018-01-15T08:11:26.867Z,72
2018-01-15T08:12:36.838Z,72
2018-01-15T08:13:47.659Z,72
2018-01-15T08:14:57.629Z,76
2018-01-15T08:16:07.382Z,80
2018-01-15T08:17:17.097Z,80
2018-01-15T08:18:26.806Z,84
2018-01-15T08:19:36.298Z,84
2018-01-15T08:20:46.275Z,92
2018-01-15T08:21:56.040Z,92
2018-01-15T08:23:06.011Z,88
2018-01-15T08:24:15.720Z,92
2018-01-15T08:25:25.528Z,96
2018-01-15T08:26:35.237Z,104
2018-01-15T08:27:44.683Z,104
2018-01-15T08:28:54.439Z,112
2018-01-15T08:30:04.204Z,120
2018-01-15T08:31:14.185Z,128
2018-01-15T08:32:23.631Z,132
2018-01-15T08:33:33.679Z,144
2018-01-15T08:34:43.388Z,152
2018-01-15T08:35:53.361Z,156
2018-01-15T08:37:03.070Z,172
2018-01-15T08:38:12.778Z,180
2018-01-15T08:39:22.488Z,196
2018-01-15T08:40:32.200Z,212
2018-01-15T08:41:42.180Z,220
2018-01-15T08:42:51.988Z,228
2018-01-15T08:44:01.959Z,240
2018-01-15T08:45:11.929Z,248
2018-01-15T08:46:21.640Z,252
2018-01-15T08:47:31.350Z,256
2018-01-15T08:48:40.842Z,280
2018-01-15T08:49:50.812Z,284
2018-01-15T08:51:00.053Z,300
2018-01-15T08:52:09.499Z,312
2018-01-15T08:53:19.475Z,328
2018-01-15T08:54:29.449Z,332
2018-01-15T08:55:39.422Z,340
2018-01-15T08:56:49.130Z,356
2018-01-15T08:57:59.114Z,376
2018-01-15T08:59:09.085Z,404
2018-01-15T09:00:19.053Z,408
2018-01-15T09:01:28.762Z,424
2018-01-15T09:02:38.735Z,428
2018-01-15T09:03:48.464Z,428
2018-01-15T09:04:58.171Z,452
2018-01-15T09:06:08.144Z,468
2018-01-15T09:07:18.124Z,484
2018-01-15T09:08:27.828Z,488
2018-01-15T09:09:37.804Z,496
2018-01-15T09:10:47.781Z,520
2018-01-15T09:11:57.752Z,536
2018-01-15T09:13:07.781Z,532
2018-01-15T09:14:17.491Z,556
2018-01-15T09:15:27.198Z,564
2018-01-15T09:16:37.179Z,604
2018-01-15T09:17:46.881Z,604
2018-01-15T09:18:56.587Z,592
2018-01-15T09:20:06.558Z,600
2018-01-15T09:21:16.268Z,624
2018-01-15T09:22:25.979Z,640
2018-01-15T09:23:35.686Z,692
2018-01-15T09:24:45.658Z,736
2018-01-15T09:25:55.363Z,792
2018-01-15T09:27:05.336Z,828
2018-01-15T09:28:15.304Z,852
2018-01-15T09:29:25.012Z,836
2018-01-15T09:30:34.985Z,824
2018-01-15T09:31:44.427Z,860
2018-01-15T09:32:54.396Z,900
2018-01-15T09:34:04.372Z,868
2018-01-15T09:35:14.085Z,908
2018-01-15T09:36:24.057Z,944
2018-01-15T09:37:33.547Z,924
2018-01-15T09:38:43.261Z,916
2018-01-15T09:39:53.238Z,940
2018-01-15T09:41:03.208Z,960
2018-01-15T09:42:12.658Z,1048
2018-01-15T09:43:22.522Z,1108
2018-01-15T09:44:31.963Z,1164
2018-01-15T09:45:41.409Z,1200
2018-01-15T09:46:51.395Z,1264
2018-01-15T09:48:01.376Z,1344
2018-01-15T09:49:11.083Z,1360
2018-01-15T09:50:20.794Z,1420
2018-01-15T09:51:30.504Z,1580
2018-01-15T09:52:40.473Z,1672
2018-01-15T09:53:50.456Z,1628
2018-01-15T09:55:00.436Z,1472
2018-01-15T09:56:10.145Z,1516
2018-01-15T09:57:19.851Z,1512
2018-01-15T09:58:29.560Z,1480
2018-01-15T09:59:39.531Z,1548
2018-01-15T10:00:49.245Z,1500
2018-01-15T10:01:59.224Z,1452
2018-01-15T10:03:08.663Z,1412
2018-01-15T10:04:18.691Z,1456
2018-01-15T10:05:28.399Z,1504
2018-01-15T10:06:37.844Z,1548
2018-01-15T10:07:47.824Z,1508
2018-01-15T10:08:57.535Z,1460
2018-01-15T10:10:07.252Z,1448
2018-01-15T10:11:16.700Z,1584
2018-01-15T10:12:26.413Z,1596
2018-01-15T10:13:36.123Z,1772
2018-01-15T10:14:45.574Z,1708
2018-01-15T10:15:55.643Z,1660
2018-01-15T10:17:05.087Z,1736
2018-01-15T10:18:14.533Z,1816
2018-01-15T10:19:24.542Z,1812
2018-01-15T10:20:34.216Z,1804
2018-01-15T10:21:44.188Z,1764
2018-01-15T10:22:54.156Z,1708
2018-01-15T10:24:03.864Z,1576
2018-01-15T10:25:13.835Z,1528
2018-01-15T10:26:23.807Z,1528
2018-01-15T10:27:33.510Z,1448
2018-01-15T10:28:42.954Z,1496
2018-01-15T10:29:52.922Z,1428
2018-01-15T10:31:02.894Z,1380
2018-01-15T10:32:12.339Z,1328
2018-01-15T10:33:22.307Z,1308
2018-01-15T10:34:31.750Z,1364
2018-01-15T10:35:41.723Z,1288
2018-01-15T10:36:51.697Z,1328
2018-01-15T10:38:01.666Z,1384
2018-01-15T10:39:11.158Z,1340
2018-01-15T10:40:21.134Z,1408
2018-01-15T10:41:30.841Z,1368
2018-01-15T10:42:40.813Z,1376
2018-01-15T10:43:50.878Z,1416
2018-01-15T10:45:00.857Z,1416
2018-01-15T10:46:10.827Z,1360
2018-01-15T10:47:20.807Z,1376
2018-01-15T10:48:30.513Z,1376
2018-01-15T10:49:40.485Z,1448
2018-01-15T10:50:50.462Z,1416
2018-01-15T10:52:00.433Z,1388
2018-01-15T10:53:10.141Z,1372
2018-01-15T10:54:19.848Z,1440
2018-01-15T10:55:29.858Z,1464
2018-01-15T10:56:39.566Z,1376
2018-01-15T10:57:49.278Z,1388
2018-01-15T10:58:58.767Z,1380
2018-01-15T11:00:08.485Z,1340
2018-01-15T11:01:18.193Z,1336
2018-01-15T11:02:28.137Z,1324
2018-01-15T11:03:38.115Z,1348
2018-01-15T11:04:47.829Z,1384
2018-01-15T11:05:57.582Z,1376
2018-01-15T11:07:07.027Z,1408
2018-01-15T11:08:17.101Z,1356
2018-01-15T11:09:27.076Z,1376
2018-01-15T11:10:37.051Z,1344
2018-01-15T11:11:47.042Z,1328
2018-01-15T11:12:56.833Z,1264
2018-01-15T11:14:06.890Z,1280
2018-01-15T11:15:16.916Z,1240
2018-01-15T11:16:26.715Z,1180
2018-01-15T11:17:36.423Z,1232
2018-01-15T11:18:46.397Z,1180
2018-01-15T11:19:56.139Z,1140
2018-01-15T11:21:05.878Z,1096
2018-01-15T11:22:15.850Z,1148
2018-01-15T11:23:25.559Z,1204
2018-01-15T11:24:35.055Z,1232
2018-01-15T11:25:44.822Z,1204
2018-01-15T11:26:54.527Z,1192
2018-01-15T11:28:04.498Z,1172
2018-01-15T11:29:14.576Z,1208
2018-01-15T11:30:24.543Z,1144
2018-01-15T11:31:34.248Z,1116
2018-01-15T11:32:44.222Z,1108
2018-01-15T11:33:54.192Z,1132
2018-01-15T11:35:04.169Z,1120
2018-01-15T11:36:14.142Z,1140
2018-01-15T11:37:24.114Z,1128
2018-01-15T11:38:34.081Z,1052
2018-01-15T11:39:44.050Z,1080
2018-01-15T11:40:54.022Z,1084
2018-01-15T11:42:03.996Z,1000
2018-01-15T11:43:13.965Z,976
2018-01-15T11:44:23.670Z,944
2018-01-15T11:45:32.847Z,956
2018-01-15T11:46:42.552Z,956
2018-01-15T11:47:52.519Z,908
2018-01-15T11:49:02.490Z,900
2018-01-15T11:50:12.207Z,904
2018-01-15T11:51:22.180Z,868
2018-01-15T11:52:32.149Z,884
2018-01-15T11:53:41.870Z,880
2018-01-15T11:54:51.845Z,884
2018-01-15T11:56:01.553Z,900
2018-01-15T11:57:11.265Z,880
2018-01-15T11:58:21.243Z,924
2018-01-15T11:59:31.216Z,916
2018-01-15T12:00:41.289Z,900
2018-01-15T12:01:50.995Z,864
2018-01-15T12:03:00.704Z,844
2018-01-15T12:04:10.414Z,852
2018-01-15T12:05:20.386Z,828
2018-01-15T12:06:30.367Z,844
2018-01-15T12:07:40.388Z,908
2018-01-15T12:08:50.125Z,904
2018-01-15T12:09:59.830Z,876
2018-01-15T12:11:09.542Z,928
2018-01-15T12:12:19.514Z,924
2018-01-15T12:13:29.242Z,908
2018-01-15T12:14:39.217Z,892
2018-01-15T12:15:48.665Z,808
2018-01-15T12:16:58.726Z,784
2018-01-15T12:18:08.783Z,784
2018-01-15T12:19:18.247Z,776
2018-01-15T12:20:27.854Z,796
2018-01-15T12:21:37.871Z,840
2018-01-15T12:22:47.851Z,812
2018-01-15T12:23:57.558Z,788
2018-01-15T12:25:07.274Z,736
2018-01-15T12:26:16.989Z,732
2018-01-15T12:27:26.714Z,772
2018-01-15T12:28:36.433Z,740
2018-01-15T12:29:46.406Z,720
2018-01-15T12:30:56.114Z,716
2018-01-15T12:32:05.824Z,708
2018-01-15T12:33:15.537Z,700
2018-01-15T12:34:25.271Z,684
2018-01-15T12:35:34.774Z,696
2018-01-15T12:36:44.752Z,696
2018-01-15T12:37:54.467Z,672
2018-01-15T12:39:04.180Z,676
2018-01-15T12:40:13.908Z,660
2018-01-15T12:41:23.985Z,644
2018-01-15T12:42:33.429Z,648
2018-01-15T12:43:43.409Z,704
2018-01-15T12:44:52.854Z,672
2018-01-15T12:46:02.832Z,676
2018-01-15T12:47:12.331Z,680
2018-01-15T12:48:22.044Z,688
2018-01-15T12:49:31.751Z,660
2018-01-15T12:50:41.201Z,632
2018-01-15T12:51:50.911Z,612
2018-01-15T12:53:01.034Z,604
2018-01-15T12:54:10.478Z,600
2018-01-15T12:55:19.925Z,584
2018-01-15T12:56:29.637Z,576
2018-01-15T12:57:39.354Z,568
2018-01-15T12:58:49.378Z,584
2018-01-15T12:59:58.838Z,592
2018-01-15T13:01:08.566Z,588
2018-01-15T13:02:18.015Z,620
2018-01-15T13:03:27.461Z,736
2018-01-15T13:04:37.218Z,736
2018-01-15T13:05:47.196Z,768
2018-01-15T13:06:56.905Z,728
2018-01-15T13:08:06.349Z,756
2018-01-15T13:09:16.060Z,816
2018-01-15T13:10:26.135Z,804
2018-01-15T13:11:35.409Z,832
2018-01-15T13:12:45.387Z,804
2018-01-15T13:13:55.410Z,820
2018-01-15T13:15:05.127Z,788
2018-01-15T13:16:15.163Z,780
2018-01-15T13:17:25.138Z,772
2018-01-15T13:18:34.847Z,752
2018-01-15T13:19:44.559Z,736
2018-01-15T13:20:54.539Z,756
2018-01-15T13:22:04.519Z,752
2018-01-15T13:23:14.229Z,716
2018-01-15T13:24:24.204Z,668
2018-01-15T13:25:33.654Z,636
2018-01-15T13:26:43.637Z,612
2018-01-15T13:27:53.354Z,584
2018-01-15T13:29:03.330Z,632
2018-01-15T13:30:13.306Z,584
2018-01-15T13:31:23.283Z,560
2018-01-15T13:32:32.730Z,540
2018-01-15T13:33:42.440Z,520
2018-01-15T13:34:52.414Z,524
2018-01-15T13:36:02.394Z,520
2018-01-15T13:37:12.373Z,524
2018-01-15T13:38:21.842Z,524
2018-01-15T13:39:31.684Z,524
2018-01-15T13:40:41.660Z,520
2018-01-15T13:41:51.634Z,496
2018-01-15T13:43:01.604Z,468
2018-01-15T13:44:11.586Z,448
2018-01-15T13:45:21.615Z,436
2018-01-15T13:46:31.384Z,428
2018-01-15T13:47:41.358Z,440
2018-01-15T13:48:51.073Z,428
2018-01-15T13:50:00.807Z,388
2018-01-15T13:51:10.878Z,376
2018-01-15T13:52:20.856Z,356
2018-01-15T13:53:30.899Z,344
2018-01-15T13:54:40.613Z,332
2018-01-15T13:55:50.586Z,324
2018-01-15T13:57:00.347Z,312
2018-01-15T13:58:09.530Z,296
2018-01-15T13:59:19.238Z,288
2018-01-15T14:00:28.420Z,268
2018-01-15T14:01:38.392Z,264
2018-01-15T14:02:48.484Z,248
2018-01-15T14:03:58.458Z,232
2018-01-15T14:05:08.433Z,224
2018-01-15T14:06:18.404Z,224
2018-01-15T14:07:28.120Z,220
2018-01-15T14:08:37.878Z,216
2018-01-15T14:09:47.851Z,220
2018-01-15T14:10:57.889Z,208
2018-01-15T14:12:07.597Z,192
2018-01-15T14:13:17.308Z,184
2018-01-15T14:14:27.018Z,196
2018-01-15T14:15:36.994Z,196
2018-01-15T14:16:46.973Z,192
2018-01-15T14:17:56.945Z,192
2018-01-15T14:19:06.655Z,196
2018-01-15T14:20:16.625Z,196
2018-01-15T14:21:26.071Z,184
2018-01-15T14:22:35.783Z,176
2018-01-15T14:23:45.230Z,172
2018-01-15T14:24:55.203Z,172
2018-01-15T14:26:04.914Z,168
2018-01-15T14:27:14.622Z,156
2018-01-15T14:28:24.068Z,148
2018-01-15T14:29:33.779Z,156
2018-01-15T14:30:43.808Z,152
2018-01-15T14:31:53.589Z,136
2018-01-15T14:33:03.564Z,124
2018-01-15T14:34:13.547Z,120
2018-01-15T14:35:23.334Z,116
2018-01-15T14:36:33.085Z,108
2018-01-15T14:37:42.793Z,96
2018-01-15T14:38:52.501Z,92
2018-01-15T14:40:02.664Z,88
2018-01-15T14:41:12.114Z,84
2018-01-15T14:42:22.089Z,76
2018-01-15T14:43:32.175Z,76
2018-01-15T14:44:41.620Z,72
2018-01-15T14:45:51.594Z,68
2018-01-15T14:47:01.300Z,60
2018-01-15T14:48:11.008Z,56
2018-01-15T14:49:21.004Z,48
2018-01-15T14:50:30.710Z,44
2018-01-15T14:51:40.688Z,44
2018-01-15T14:52:50.661Z,44
2018-01-15T14:54:00.101Z,44
2018-01-15T14:55:10.079Z,44
2018-01-15T14:56:20.056Z,36
2018-01-15T14:57:29.768Z,32
2018-01-15T14:58:39.787Z,28
2018-01-15T14:59:49.498Z,24
2018-01-15T15:00:59.474Z,24
2018-01-15T15:02:09.193Z,24
2018-01-15T15:03:18.901Z,20
2018-01-15T15:04:28.606Z,16
2018-01-15T15:05:38.314Z,16
2018-01-15T15:06:48.285Z,16
2018-01-15T15:07:57.992Z,16
2018-01-15T15:09:07.702Z,12
2018-01-15T15:10:17.409Z,12
2018-01-15T15:11:27.120Z,8
2018-01-15T15:12:37.090Z,8
2018-01-15T15:13:46.835Z,4
2018-01-15T15:14:56.325Z,4
2018-01-15T15:16:06.482Z,4
2018-01-15T15:17:16.009Z,4
2018-01-15T15:18:25.822Z,4
2018-01-15T15:19:35.792Z,4
2018-01-15T15:20:45.493Z,0
2018-01-15T15:21:55.205Z,4
2018-01-15T15:23:04.915Z,4
2018-01-15T15:24:14.356Z,4
2018-01-15T15:25:24.328Z,4
2018-01-15T15:26:34.078Z,4
2018-01-15T15:27:44.050Z,0
2018-01-15T15:28:53.753Z,0
2018-01-15T15:30:03.724Z,0
2018-01-15T15:31:13.426Z,0
2018-01-15T15:32:22.870Z,0
2018-01-15T15:33:32.859Z,0
2018-01-15T15:34:42.561Z,0
2018-01-15T15:35:52.532Z,0
2018-01-15T15:37:02.501Z,0
2018-01-15T15:38:12.208Z,0
2018-01-15T15:39:22.177Z,0
2018-01-15T15:40:31.621Z,0
2018-01-15T15:41:41.642Z,0
2018-01-15T15:42:51.349Z,0
2018-01-15T15:44:01.054Z,0
2018-01-15T15:45:10.504Z,0
2018-01-15T15:46:20.218Z,0
2018-01-15T15:47:30.288Z,0
2018-01-15T15:48:40.005Z,0
2018-01-15T15:49:49.715Z,0
2018-01-15T15:50:59.683Z,0
2018-01-15T15:52:09.390Z,0
2018-01-15T15:53:19.361Z,0
2018-01-15T15:54:28.804Z,0
2018-01-15T15:55:37.982Z,0
2018-01-15T15:56:47.692Z,0
2018-01-15T15:57:57.670Z,0
2018-01-15T15:59:07.262Z,0
2018-01-15T16:00:17.232Z,0
2018-01-15T16:01:26.946Z,0
2018-01-15T16:02:36.915Z,0
2018-01-15T16:03:46.627Z,0
2018-01-15T16:04:57.132Z,0
2018-01-15T16:06:06.843Z,0
2018-01-15T16:07:16.826Z,0
2018-01-15T16:08:26.266Z,0
2018-01-15T16:09:36.239Z,0
2018-01-15T16:10:46.215Z,0
2018-01-15T16:11:56.189Z,0
2018-01-15T16:13:05.898Z,0
2018-01-15T16:14:15.348Z,0
2018-01-15T16:15:25.052Z,0
2018-01-15T16:16:35.029Z,0
2018-01-15T16:17:45.049Z,0
2018-01-15T16:18:54.755Z,0
2018-01-15T16:20:04.198Z,0
2018-01-15T16:21:13.909Z,0
2018-01-15T16:22:23.939Z,0
2018-01-15T16:23:33.644Z,0
2018-01-15T16:24:43.087Z,0
2018-01-15T16:25:53.057Z,0
2018-01-15T16:27:02.766Z,0
2018-01-15T16:28:12.743Z,0
2018-01-15T16:29:22.722Z,0
2018-01-15T16:30:31.902Z,0
2018-01-15T16:31:41.896Z,0
2018-01-15T16:32:51.870Z,0
2018-01-15T16:34:01.632Z,0
2018-01-15T16:35:11.603Z,0
2018-01-15T16:36:21.576Z,0
2018-01-15T16:37:31.579Z,0
2018-01-15T16:38:41.550Z,0
2018-01-15T16:39:51.264Z,0